Time;durP1;ratioP1;P1;durP2;ratioP2;P2;SDS_P1;SDS_P2;PMS_P1;PMS_P2;Temp;Humidity;BMP_temperature;BMP_pressure;BME280_temperature;BME280_humidity;BME280_pressure;Samples;Min_cycle;Max_cycle;Signal;HPM_P1;HPM_P2
2022/12/31 01:56:06;;;;;;;275.95;108.20;;;;;;;;;;5074545;28;20040;-82
2022/12/31 01:58:54;;;;;;;256.63;106.43;;;;;;;;;;5076460;28;20036;-84
2022/12/31 02:01:40;;;;;;;247.30;101.90;;;;;;;;;;5075994;28;20041;-85
2022/12/31 02:04:26;;;;;;;196.68;84.65;;;;;;;;;;5074792;28;20048;-85
2022/12/31 02:07:12;;;;;;;167.90;71.90;;;;;;;;;;5076138;28;20045;-83
2022/12/31 02:09:58;;;;;;;191.10;81.07;;;;;;;;;;5073929;28;20044;-82
2022/12/31 02:12:43;;;;;;;222.55;97.82;;;;;;;;;;5067635;28;20048;-83
2022/12/31 02:15:39;;;;;;;246.75;103.13;;;;;;;;;;5077827;28;20406;-81
2022/12/31 02:19:03;;;;;;;267.40;123.95;;;;;;;;;;5073712;28;20048;-79
2022/12/31 02:21:56;;;;;;;356.73;145.27;;;;;;;;;;5037102;28;20041;-79
2022/12/31 02:25:14;;;;;;;349.52;138.35;;;;;;;;;;5054546;28;20514;-82
2022/12/31 02:28:14;;;;;;;314.55;134.43;;;;;;;;;;5087182;28;20048;-83
2022/12/31 02:31:29;;;;;;;378.35;154.02;;;;;;;;;;5077415;28;20044;-86
2022/12/31 02:34:51;;;;;;;329.42;138.13;;;;;;;;;;5075052;28;20041;-86
2022/12/31 02:41:56;;;;;;;347.95;139.27;;;;;;;;;;5076088;28;20049;-84
2022/12/31 02:44:45;;;;;;;340.65;143.88;;;;;;;;;;5074035;28;20049;-83
2022/12/31 02:47:51;;;;;;;381.95;143.05;;;;;;;;;;5081147;28;20037;-83
2022/12/31 02:50:54;;;;;;;256.60;115.22;;;;;;;;;;5060404;28;20044;-89
2022/12/31 02:53:45;;;;;;;243.07;108.90;;;;;;;;;;5074873;28;20048;-85
2022/12/31 02:57:14;;;;;;;242.60;91.03;;;;;;;;;;5075011;28;20041;-87
2022/12/31 03:03:13;;;;;;;189.60;71.53;;;;;;;;;;5080769;28;20418;-86
2022/12/31 03:06:05;;;;;;;193.32;71.00;;;;;;;;;;5074715;28;20041;-86
2022/12/31 03:09:31;;;;;;;235.60;72.82;;;;;;;;;;5073849;28;20486;-86
2022/12/31 03:15:59;;;;;;;247.45;88.28;;;;;;;;;;5074628;28;20049;-87
2022/12/31 03:22:41;;;;;;;;;;;;;;;;;;;;;
2022/12/31 03:25:37;;;;;;;274.55;107.20;;;;;;;;;;5075142;28;20052;-86
2022/12/31 03:28:26;;;;;;;273.90;115.80;;;;;;;;;;5080520;28;20052;-86
2022/12/31 03:31:16;;;;;;;288.45;114.78;;;;;;;;;;5052732;28;20041;-84
2022/12/31 03:34:01;;;;;;;310.42;115.45;;;;;;;;;;5074587;28;20041;-84
2022/12/31 03:36:47;;;;;;;318.88;116.38;;;;;;;;;;5074327;28;20282;-84
2022/12/31 03:39:32;;;;;;;259.80;115.05;;;;;;;;;;5080204;28;20425;-84
2022/12/31 03:42:18;;;;;;;342.95;123.68;;;;;;;;;;5074194;28;20044;-84
2022/12/31 03:45:04;;;;;;;339.20;125.45;;;;;;;;;;5074092;28;20044;-85
2022/12/31 03:47:49;;;;;;;339.95;119.15;;;;;;;;;;5074627;28;20390;-86
2022/12/31 03:50:35;;;;;;;314.40;109.88;;;;;;;;;;5074187;28;20041;-85
2022/12/31 03:53:20;;;;;;;295.55;104.43;;;;;;;;;;5073073;28;20053;-84
2022/12/31 03:56:06;;;;;;;248.00;100.45;;;;;;;;;;5058980;28;20045;-84
2022/12/31 03:58:51;;;;;;;269.35;98.82;;;;;;;;;;5058329;28;20041;-84
2022/12/31 04:01:37;;;;;;;259.63;101.18;;;;;;;;;;5072938;28;20044;-85
2022/12/31 04:04:22;;;;;;;325.55;108.93;;;;;;;;;;5059041;28;20044;-85
2022/12/31 04:07:07;;;;;;;264.00;102.78;;;;;;;;;;5059068;28;20049;-85
2022/12/31 04:09:53;;;;;;;332.85;108.07;;;;;;;;;;5065440;28;20041;-85
2022/12/31 04:12:39;;;;;;;295.52;110.53;;;;;;;;;;5080036;28;20048;-85
2022/12/31 04:15:24;;;;;;;298.15;107.15;;;;;;;;;;5079650;28;20037;-87
2022/12/31 04:18:09;;;;;;;260.70;106.43;;;;;;;;;;5073563;28;20037;-85
2022/12/31 04:20:54;;;;;;;282.58;102.63;;;;;;;;;;5073761;28;20040;-86
2022/12/31 04:23:40;;;;;;;314.80;112.03;;;;;;;;;;5073599;28;20060;-86
2022/12/31 04:26:25;;;;;;;282.88;109.30;;;;;;;;;;5072883;28;20045;-85
2022/12/31 04:29:11;;;;;;;301.67;113.40;;;;;;;;;;5073547;28;20037;-85
2022/12/31 04:31:56;;;;;;;299.00;112.82;;;;;;;;;;5073657;28;20052;-85
2022/12/31 04:34:42;;;;;;;290.30;108.40;;;;;;;;;;5058327;28;20044;-84
2022/12/31 04:37:28;;;;;;;268.63;101.03;;;;;;;;;;5073457;28;20044;-85
2022/12/31 04:40:13;;;;;;;317.13;109.47;;;;;;;;;;5073374;28;20107;-86
2022/12/31 04:42:59;;;;;;;280.42;112.38;;;;;;;;;;5079194;28;20045;-86
2022/12/31 04:45:44;;;;;;;267.17;109.85;;;;;;;;;;5073338;28;20048;-85
2022/12/31 04:48:30;;;;;;;262.15;108.38;;;;;;;;;;5073469;28;20376;-86
2022/12/31 04:51:15;;;;;;;274.38;106.88;;;;;;;;;;5079062;28;20486;-85
2022/12/31 04:54:02;;;;;;;258.25;108.25;;;;;;;;;;5073014;28;20041;-85
2022/12/31 04:56:46;;;;;;;256.35;105.10;;;;;;;;;;5064490;28;20053;-86
2022/12/31 04:59:31;;;;;;;199.88;94.93;;;;;;;;;;5073217;28;20036;-86
2022/12/31 05:02:17;;;;;;;213.15;98.85;;;;;;;;;;5073218;28;20048;-85
2022/12/31 05:05:02;;;;;;;203.55;92.75;;;;;;;;;;5058588;28;20044;-85
2022/12/31 05:07:48;;;;;;;225.30;93.78;;;;;;;;;;5065716;28;20048;-85
2022/12/31 05:10:33;;;;;;;216.10;90.00;;;;;;;;;;5077218;28;20040;-86
2022/12/31 05:13:20;;;;;;;248.27;87.57;;;;;;;;;;5069287;28;20049;-85
2022/12/31 05:16:05;;;;;;;211.35;89.93;;;;;;;;;;5075964;28;20040;-85
2022/12/31 05:18:51;;;;;;;242.70;92.20;;;;;;;;;;5077256;28;20493;-85
2022/12/31 05:21:37;;;;;;;246.23;94.03;;;;;;;;;;5062166;28;20052;-85
2022/12/31 05:24:22;;;;;;;264.67;109.57;;;;;;;;;;5076346;28;20041;-85
2022/12/31 05:27:07;;;;;;;300.70;110.53;;;;;;;;;;5077005;28;20049;-85
2022/12/31 05:29:53;;;;;;;279.95;105.70;;;;;;;;;;5061877;28;20052;-85
2022/12/31 05:32:39;;;;;;;250.10;109.32;;;;;;;;;;5062008;28;20045;-84
2022/12/31 05:35:24;;;;;;;232.40;102.18;;;;;;;;;;5076925;28;20078;-85
2022/12/31 05:38:10;;;;;;;241.27;103.55;;;;;;;;;;5082966;28;20048;-85
2022/12/31 05:41:00;;;;;;;205.43;101.25;;;;;;;;;;5076726;28;20040;-86
2022/12/31 05:43:46;;;;;;;256.48;108.55;;;;;;;;;;5076815;28;20029;-86
2022/12/31 05:46:31;;;;;;;284.75;110.32;;;;;;;;;;5076612;28;20058;-85
2022/12/31 05:49:17;;;;;;;258.17;108.38;;;;;;;;;;5076634;28;20032;-85
2022/12/31 05:52:02;;;;;;;286.75;108.65;;;;;;;;;;5076586;28;20044;-85
2022/12/31 05:54:48;;;;;;;297.40;107.25;;;;;;;;;;5076529;28;20040;-85
2022/12/31 05:57:33;;;;;;;317.85;108.03;;;;;;;;;;5060947;28;20506;-85
2022/12/31 06:00:19;;;;;;;284.92;104.75;;;;;;;;;;5076401;28;20050;-85
2022/12/31 06:03:05;;;;;;;301.10;109.95;;;;;;;;;;5076510;28;20044;-85
2022/12/31 06:05:50;;;;;;;267.70;105.57;;;;;;;;;;5061001;28;20041;-85
2022/12/31 06:08:35;;;;;;;279.55;100.95;;;;;;;;;;5067663;28;20040;-85
2022/12/31 06:11:20;;;;;;;262.25;101.13;;;;;;;;;;5081698;28;20044;-86
2022/12/31 06:14:06;;;;;;;297.63;108.38;;;;;;;;;;5076051;28;20044;-86
2022/12/31 06:16:51;;;;;;;240.10;98.68;;;;;;;;;;5061067;28;20041;-85
2022/12/31 06:19:37;;;;;;;309.95;105.90;;;;;;;;;;5067592;28;20045;-86
2022/12/31 06:22:23;;;;;;;280.55;99.03;;;;;;;;;;5060398;28;20040;-85
2022/12/31 06:25:09;;;;;;;249.77;102.03;;;;;;;;;;5075812;28;20045;-87
2022/12/31 06:27:54;;;;;;;272.45;105.32;;;;;;;;;;5053238;28;20052;-83
2022/12/31 06:30:39;;;;;;;304.75;105.78;;;;;;;;;;5081578;28;20048;-85
2022/12/31 06:33:48;;;;;;;226.30;87.95;;;;;;;;;;5067809;28;20044;-86
2022/12/31 06:36:39;;;;;;;277.80;106.13;;;;;;;;;;5066378;28;20049;-88
2022/12/31 06:40:29;;;;;;;316.77;115.47;;;;;;;;;;5075654;28;20049;-89
2022/12/31 06:43:22;;;;;;;331.63;115.13;;;;;;;;;;5053702;28;20410;-89
2022/12/31 06:46:23;;;;;;;328.73;117.25;;;;;;;;;;5074628;28;20045;-89
2022/12/31 06:49:11;;;;;;;390.88;136.07;;;;;;;;;;5075468;28;20041;-89
2022/12/31 06:51:59;;;;;;;408.13;146.23;;;;;;;;;;5074872;28;20053;-89
2022/12/31 06:54:44;;;;;;;363.20;131.23;;;;;;;;;;5061926;28;20037;-89
2022/12/31 06:57:35;;;;;;;284.08;125.38;;;;;;;;;;5060887;28;20045;-89
2022/12/31 07:00:33;;;;;;;302.27;127.95;;;;;;;;;;5060219;28;20040;-90
2022/12/31 07:03:52;;;;;;;323.73;136.18;;;;;;;;;;5081012;28;20048;-86
2022/12/31 07:06:50;;;;;;;320.63;117.80;;;;;;;;;;5077349;28;20485;-87
2022/12/31 07:09:54;;;;;;;299.70;119.22;;;;;;;;;;5079187;28;20040;-86
2022/12/31 07:13:07;;;;;;;265.15;112.78;;;;;;;;;;5072153;28;20497;-86
2022/12/31 07:16:25;;;;;;;274.83;113.28;;;;;;;;;;5080286;28;20052;-87
2022/12/31 07:19:10;;;;;;;313.23;114.72;;;;;;;;;;5058589;28;20049;-86
2022/12/31 07:21:58;;;;;;;266.23;103.30;;;;;;;;;;5071338;28;20044;-88
2022/12/31 07:24:44;;;;;;;251.57;111.90;;;;;;;;;;5065346;28;20040;-87
2022/12/31 07:27:58;;;;;;;261.88;105.05;;;;;;;;;;5088286;28;20045;-89
2022/12/31 07:31:02;;;;;;;358.45;133.70;;;;;;;;;;5065371;28;20041;-89
2022/12/31 07:33:58;;;;;;;283.98;127.47;;;;;;;;;;5058754;28;20041;-88
2022/12/31 07:37:03;;;;;;;298.80;134.35;;;;;;;;;;5074376;28;20477;-86
2022/12/31 07:40:17;;;;;;;344.30;132.93;;;;;;;;;;5073621;28;20036;-88
2022/12/31 07:43:41;;;;;;;380.98;154.27;;;;;;;;;;5057723;28;20052;-88
2022/12/31 07:46:54;;;;;;;350.83;144.40;;;;;;;;;;5066039;28;20032;-86
2022/12/31 07:49:41;;;;;;;337.98;143.75;;;;;;;;;;5079634;28;20048;-86
2022/12/31 07:52:27;;;;;;;314.80;127.25;;;;;;;;;;5074364;28;20045;-86
2022/12/31 07:55:12;;;;;;;271.45;126.97;;;;;;;;;;5073267;28;20045;-88
2022/12/31 07:58:07;;;;;;;210.25;98.78;;;;;;;;;;5065624;28;20048;-86
2022/12/31 08:00:56;;;;;;;245.40;98.93;;;;;;;;;;5065555;28;20489;-88
2022/12/31 08:03:53;;;;;;;278.55;117.88;;;;;;;;;;5079211;28;20037;-86
2022/12/31 08:07:27;;;;;;;276.30;117.65;;;;;;;;;;5059622;28;20044;-88
2022/12/31 08:10:59;;;;;;;264.35;113.63;;;;;;;;;;5051599;28;20044;-87
2022/12/31 08:14:14;;;;;;;309.92;126.70;;;;;;;;;;5040386;28;20534;-86
2022/12/31 08:17:12;;;;;;;313.33;135.77;;;;;;;;;;5046539;28;20036;-87
2022/12/31 08:20:02;;;;;;;394.05;157.63;;;;;;;;;;5072339;28;20040;-90
2022/12/31 08:23:06;;;;;;;296.50;135.77;;;;;;;;;;5058964;28;20052;-89
2022/12/31 08:26:39;;;;;;;316.37;127.43;;;;;;;;;;5065319;28;20393;-89
2022/12/31 08:29:45;;;;;;;331.38;153.82;;;;;;;;;;5064707;28;20045;-88
2022/12/31 08:32:42;;;;;;;;;;;;;;;;;;5073057;28;20040;-86
2022/12/31 08:36:09;;;;;;;348.92;151.55;;;;;;;;;;5072713;28;19916;-88
2022/12/31 08:39:09;;;;;;;328.92;133.32;;;;;;;;;;5079110;28;20052;-88
2022/12/31 08:41:59;;;;;;;254.68;112.97;;;;;;;;;;5052770;28;20489;-86
2022/12/31 08:45:31;;;;;;;287.88;131.73;;;;;;;;;;5073080;28;20450;-87
2022/12/31 08:48:38;;;;;;;305.08;137.73;;;;;;;;;;5045809;28;20379;-88
2022/12/31 08:51:44;;;;;;;383.15;182.80;;;;;;;;;;5073124;28;20045;-86
2022/12/31 08:54:42;;;;;;;395.73;203.05;;;;;;;;;;5052227;28;20044;-86
2022/12/31 08:57:52;;;;;;;390.67;212.43;;;;;;;;;;5052288;28;20045;-89
2022/12/31 09:01:41;;;;;;;;;;;;;;;;;;;;;
2022/12/31 09:05:06;;;;;;;350.40;199.48;;;;;;;;;;5053701;28;20482;-86
2022/12/31 09:08:16;;;;;;;317.42;165.32;;;;;;;;;;5073096;28;20478;-87
2022/12/31 09:11:22;;;;;;;354.05;203.60;;;;;;;;;;5058261;28;20351;-77
2022/12/31 09:14:30;;;;;;;318.15;185.50;;;;;;;;;;5058893;28;20486;-77
2022/12/31 09:17:21;;;;;;;316.73;183.60;;;;;;;;;;5058907;28;20117;-77
2022/12/31 09:20:19;;;;;;;273.88;156.43;;;;;;;;;;5052822;28;20049;-78
2022/12/31 09:23:05;;;;;;;276.73;164.45;;;;;;;;;;5059874;28;20052;-79
2022/12/31 09:26:03;;;;;;;280.17;159.25;;;;;;;;;;5052574;28;20041;-79
2022/12/31 09:29:09;;;;;;;252.63;142.88;;;;;;;;;;5052621;28;20041;-80
2022/12/31 09:32:19;;;;;;;266.83;150.38;;;;;;;;;;5052747;28;20049;-80
2022/12/31 09:35:06;;;;;;;153.60;86.22;;;;;;;;;;5052536;28;20041;-78
2022/12/31 09:38:12;;;;;;;174.10;104.13;;;;;;;;;;5052617;28;20048;-79
2022/12/31 09:41:31;;;;;;;183.63;110.53;;;;;;;;;;5051581;28;20044;-78
2022/12/31 09:44:23;;;;;;;195.57;115.82;;;;;;;;;;5052705;28;20049;-78
2022/12/31 09:47:41;;;;;;;184.23;109.22;;;;;;;;;;5052734;28;20075;-79
2022/12/31 09:50:50;;;;;;;176.52;102.28;;;;;;;;;;5052725;28;20049;-78
2022/12/31 09:54:07;;;;;;;192.38;112.57;;;;;;;;;;5052088;28;20037;-79
2022/12/31 09:57:04;;;;;;;184.65;109.97;;;;;;;;;;5050235;28;20478;-79
2022/12/31 10:00:09;;;;;;;202.63;115.63;;;;;;;;;;5056155;28;20041;-79
2022/12/31 10:03:14;;;;;;;260.73;153.98;;;;;;;;;;5055871;28;20037;-82
2022/12/31 10:05:59;;;;;;;282.85;160.98;;;;;;;;;;5056035;28;20041;-81
2022/12/31 10:09:07;;;;;;;259.85;155.82;;;;;;;;;;5055479;28;20037;-81
2022/12/31 10:12:01;;;;;;;220.00;127.93;;;;;;;;;;5055975;28;20049;-81
2022/12/31 10:15:15;;;;;;;199.52;113.82;;;;;;;;;;5061971;28;20060;-81
2022/12/31 10:18:16;;;;;;;185.80;106.53;;;;;;;;;;5055806;28;20044;-78
2022/12/31 10:21:18;;;;;;;156.55;80.90;;;;;;;;;;5055889;28;20045;-79
2022/12/31 10:24:33;;;;;;;96.25;49.10;;;;;;;;;;5061971;28;20048;-79
2022/12/31 10:27:36;;;;;;;97.45;50.50;;;;;;;;;;5061220;28;20049;-80
2022/12/31 10:30:23;;;;;;;95.32;52.00;;;;;;;;;;5055416;28;20395;-82
2022/12/31 10:33:24;;;;;;;89.03;49.97;;;;;;;;;;5055368;28;20045;-79
2022/12/31 10:36:19;;;;;;;92.45;50.25;;;;;;;;;;5055313;28;20056;-79
2022/12/31 10:39:15;;;;;;;96.93;52.47;;;;;;;;;;5055651;28;20479;-78
2022/12/31 10:42:32;;;;;;;90.57;50.17;;;;;;;;;;5055249;28;20499;-79
2022/12/31 10:45:42;;;;;;;106.35;63.17;;;;;;;;;;5049067;28;20505;-79
2022/12/31 10:48:57;;;;;;;99.68;54.88;;;;;;;;;;5054826;28;20041;-79
2022/12/31 10:52:00;;;;;;;98.85;52.65;;;;;;;;;;5054921;28;20049;-80
2022/12/31 10:55:11;;;;;;;81.53;43.08;;;;;;;;;;5056693;28;20049;-84
2022/12/31 10:58:15;;;;;;;114.57;54.15;;;;;;;;;;5055570;28;20056;-79
2022/12/31 11:01:06;;;;;;;118.45;61.65;;;;;;;;;;5061859;28;20045;-85
2022/12/31 11:04:07;;;;;;;186.52;95.10;;;;;;;;;;5055156;28;20478;-85
2022/12/31 11:07:29;;;;;;;71.10;39.88;;;;;;;;;;5067718;28;20070;-85
2022/12/31 11:10:33;;;;;;;81.72;47.70;;;;;;;;;;5053935;28;20506;-80
2022/12/31 11:13:30;;;;;;;82.05;46.00;;;;;;;;;;5053915;28;20048;-81
2022/12/31 11:17:08;;;;;;;76.25;44.33;;;;;;;;;;5054075;28;20053;-85
2022/12/31 11:20:09;;;;;;;69.43;41.00;;;;;;;;;;5052052;28;20049;-81
2022/12/31 11:23:06;;;;;;;66.72;41.30;;;;;;;;;;5054522;28;20479;-81
2022/12/31 11:25:56;;;;;;;74.45;42.50;;;;;;;;;;5061070;28;20387;-85
2022/12/31 11:29:03;;;;;;;68.65;39.42;;;;;;;;;;5060076;28;20490;-85
2022/12/31 11:32:24;;;;;;;64.32;36.60;;;;;;;;;;5054192;28;20414;-84
2022/12/31 11:35:21;;;;;;;76.95;44.03;;;;;;;;;;5045548;28;20049;-85
2022/12/31 11:38:15;;;;;;;83.00;45.05;;;;;;;;;;5054483;28;20033;-84
2022/12/31 11:41:04;;;;;;;99.38;55.47;;;;;;;;;;5054060;28;20049;-81
2022/12/31 11:44:29;;;;;;;110.10;63.20;;;;;;;;;;5061356;28;20053;-80
2022/12/31 11:47:36;;;;;;;105.03;59.55;;;;;;;;;;5059402;28;20406;-83
2022/12/31 11:50:28;;;;;;;97.15;52.42;;;;;;;;;;5054253;28;20044;-84
2022/12/31 11:53:17;;;;;;;118.38;62.80;;;;;;;;;;5059632;28;20486;-84
2022/12/31 11:56:06;;;;;;;63.97;37.92;;;;;;;;;;5061062;28;20375;-85
2022/12/31 11:58:54;;;;;;;76.22;40.50;;;;;;;;;;5053788;28;20048;-84
2022/12/31 12:01:45;;;;;;;85.63;47.03;;;;;;;;;;5053241;28;20041;-85
2022/12/31 12:04:31;;;;;;;88.57;51.65;;;;;;;;;;5053242;28;20056;-84
2022/12/31 12:07:16;;;;;;;86.13;49.05;;;;;;;;;;5053276;28;20041;-84
2022/12/31 12:10:13;;;;;;;87.00;49.20;;;;;;;;;;5053156;28;20045;-85
2022/12/31 12:12:58;;;;;;;103.97;55.72;;;;;;;;;;5053266;28;20049;-81
2022/12/31 12:15:48;;;;;;;100.00;54.38;;;;;;;;;;5059036;28;20049;-86
2022/12/31 12:18:41;;;;;;;80.00;46.63;;;;;;;;;;5052507;28;20044;-86
2022/12/31 12:21:27;;;;;;;78.53;43.78;;;;;;;;;;5053703;28;20037;-80
2022/12/31 12:24:25;;;;;;;69.60;41.22;;;;;;;;;;5053701;28;20045;-82
2022/12/31 12:27:27;;;;;;;65.10;39.58;;;;;;;;;;5053385;28;20045;-81
2022/12/31 12:30:23;;;;;;;81.03;44.17;;;;;;;;;;5073370;28;20049;-86
2022/12/31 12:33:19;;;;;;;65.60;38.80;;;;;;;;;;5052068;28;20045;-85
2022/12/31 12:36:13;;;;;;;61.35;36.35;;;;;;;;;;5053204;28;20033;-85
2022/12/31 12:39:04;;;;;;;56.53;33.40;;;;;;;;;;5072742;28;20041;-84
2022/12/31 12:42:18;;;;;;;51.35;28.70;;;;;;;;;;5053095;28;20041;-84
2022/12/31 12:45:15;;;;;;;50.73;29.87;;;;;;;;;;5052405;28;20060;-81
2022/12/31 12:48:05;;;;;;;48.63;28.75;;;;;;;;;;5053020;28;20041;-81
2022/12/31 12:50:52;;;;;;;47.95;29.35;;;;;;;;;;5058977;28;20049;-84
2022/12/31 12:53:50;;;;;;;52.83;32.60;;;;;;;;;;5051861;28;20057;-84
2022/12/31 12:56:45;;;;;;;53.85;31.13;;;;;;;;;;5052668;28;20462;-85
2022/12/31 12:59:53;;;;;;;54.78;32.20;;;;;;;;;;5053328;28;20394;-84
2022/12/31 13:03:08;;;;;;;51.97;31.58;;;;;;;;;;5053066;28;20049;-84
2022/12/31 13:06:03;;;;;;;;;;;;;;;;;;5052960;28;20045;-81
2022/12/31 13:09:00;;;;;;;127.03;65.18;;;;;;;;;;5051844;28;19917;-81
2022/12/31 13:12:13;;;;;;;93.35;49.00;;;;;;;;;;5059325;28;20041;-84
2022/12/31 13:15:01;;;;;;;74.65;44.60;;;;;;;;;;5053350;28;20041;-84
2022/12/31 13:17:59;;;;;;;76.60;46.08;;;;;;;;;;5059389;28;20049;-84
2022/12/31 13:20:48;;;;;;;104.03;53.50;;;;;;;;;;5059763;28;20056;-85
2022/12/31 13:23:47;;;;;;;78.05;45.92;;;;;;;;;;5053227;28;20352;-82
2022/12/31 13:26:46;;;;;;;83.15;47.63;;;;;;;;;;5072580;28;20037;-85
2022/12/31 13:29:33;;;;;;;62.75;37.95;;;;;;;;;;5052914;28;20041;-82
2022/12/31 13:32:35;;;;;;;68.20;40.78;;;;;;;;;;5056393;28;20033;-82
2022/12/31 13:35:40;;;;;;;80.05;43.65;;;;;;;;;;5056544;28;20048;-86
2022/12/31 13:38:34;;;;;;;57.65;35.50;;;;;;;;;;5056414;28;20037;-85
2022/12/31 13:41:56;;;;;;;60.10;37.03;;;;;;;;;;5056580;28;20486;-82
2022/12/31 13:45:10;;;;;;;64.97;41.38;;;;;;;;;;5031164;28;20386;-82
2022/12/31 13:48:09;;;;;;;61.60;40.85;;;;;;;;;;5062682;28;20045;-83
2022/12/31 13:51:04;;;;;;;64.38;40.38;;;;;;;;;;5056306;28;20056;-83
2022/12/31 13:54:02;;;;;;;58.83;37.55;;;;;;;;;;5069000;28;20045;-85
2022/12/31 13:56:50;;;;;;;64.50;40.50;;;;;;;;;;5062886;28;20057;-85
2022/12/31 13:59:38;;;;;;;69.28;41.63;;;;;;;;;;5056446;28;20049;-85
2022/12/31 14:02:41;;;;;;;74.15;47.42;;;;;;;;;;5056095;28;20041;-85
2022/12/31 14:05:41;;;;;;;85.53;51.83;;;;;;;;;;5059128;28;20045;-86
2022/12/31 14:08:27;;;;;;;91.07;50.70;;;;;;;;;;5056033;28;20045;-85
2022/12/31 14:11:39;;;;;;;90.70;51.58;;;;;;;;;;5056230;28;20487;-81
2022/12/31 14:14:53;;;;;;;84.15;51.65;;;;;;;;;;5055492;28;20490;-81
2022/12/31 14:18:01;;;;;;;85.57;51.05;;;;;;;;;;5055730;28;20049;-83
2022/12/31 14:20:52;;;;;;;86.18;50.53;;;;;;;;;;5055385;28;20045;-84
2022/12/31 14:23:38;;;;;;;93.00;52.88;;;;;;;;;;5055781;28;20422;-84
2022/12/31 14:26:26;;;;;;;336.35;172.73;;;;;;;;;;5055679;28;20048;-84
2022/12/31 14:29:11;;;;;;;416.38;267.38;;;;;;;;;;5075859;28;20037;-81
2022/12/31 14:32:14;;;;;;;385.50;250.85;;;;;;;;;;5055811;28;20037;-80
2022/12/31 14:35:02;;;;;;;110.30;59.70;;;;;;;;;;5055756;28;20360;-81
2022/12/31 14:37:53;;;;;;;103.68;56.30;;;;;;;;;;5068825;28;20049;-83
2022/12/31 14:40:54;;;;;;;97.00;56.60;;;;;;;;;;5055647;28;20482;-82
2022/12/31 14:44:04;;;;;;;121.13;64.13;;;;;;;;;;5055165;28;20048;-84
2022/12/31 14:47:11;;;;;;;156.80;78.00;;;;;;;;;;5055062;28;20433;-83
2022/12/31 14:50:14;;;;;;;197.95;84.95;;;;;;;;;;5054670;28;20044;-81
2022/12/31 14:53:02;;;;;;;186.65;82.80;;;;;;;;;;5054843;28;20049;-84
2022/12/31 14:56:03;;;;;;;136.77;71.40;;;;;;;;;;5055151;28;20049;-82
2022/12/31 14:58:57;;;;;;;196.38;77.30;;;;;;;;;;5055434;28;20041;-84
2022/12/31 15:01:45;;;;;;;152.55;76.28;;;;;;;;;;5061695;28;20049;-82
2022/12/31 15:04:43;;;;;;;185.50;89.57;;;;;;;;;;5055349;28;20041;-83
2022/12/31 15:07:57;;;;;;;1205.90;683.83;;;;;;;;;;5047040;28;20041;-84
2022/12/31 15:10:56;;;;;;;676.97;378.65;;;;;;;;;;5054849;28;20048;-85
2022/12/31 15:14:16;;;;;;;484.88;268.25;;;;;;;;;;5068991;28;20045;-85
2022/12/31 15:17:34;;;;;;;348.00;172.52;;;;;;;;;;5055970;28;20040;-84
2022/12/31 15:20:52;;;;;;;348.13;179.93;;;;;;;;;;5068179;28;20490;-84
2022/12/31 15:23:41;;;;;;;489.55;292.48;;;;;;;;;;5054951;28;20049;-84
2022/12/31 15:26:30;;;;;;;310.38;158.30;;;;;;;;;;5067432;28;20039;-86
2022/12/31 15:29:31;;;;;;;288.42;148.82;;;;;;;;;;5054694;28;20049;-86
2022/12/31 15:32:30;;;;;;;294.00;151.60;;;;;;;;;;5054932;28;20479;-86
2022/12/31 15:35:21;;;;;;;293.65;156.85;;;;;;;;;;5074254;28;20458;-86
2022/12/31 15:38:10;;;;;;;345.85;199.23;;;;;;;;;;5054347;28;20398;-84
2022/12/31 15:40:56;;;;;;;317.23;180.50;;;;;;;;;;5054065;28;20487;-84
2022/12/31 15:43:44;;;;;;;249.43;120.78;;;;;;;;;;5053892;28;20040;-84
2022/12/31 15:46:32;;;;;;;193.13;96.82;;;;;;;;;;5073848;28;20050;-87
2022/12/31 15:49:22;;;;;;;275.75;142.93;;;;;;;;;;5053473;28;20075;-86
2022/12/31 15:52:17;;;;;;;235.15;114.57;;;;;;;;;;5053628;28;20398;-87
2022/12/31 15:55:05;;;;;;;319.23;164.40;;;;;;;;;;5067693;28;20053;-86
2022/12/31 15:57:52;;;;;;;368.75;196.50;;;;;;;;;;5067425;28;20053;-86
2022/12/31 16:01:08;;;;;;;305.33;147.35;;;;;;;;;;5066369;28;20052;-84
2022/12/31 16:03:58;;;;;;;270.65;135.25;;;;;;;;;;5053633;28;20045;-84
2022/12/31 16:06:43;;;;;;;282.42;140.68;;;;;;;;;;5052902;28;20036;-83
2022/12/31 16:09:33;;;;;;;268.23;142.40;;;;;;;;;;5053183;28;20048;-86
2022/12/31 16:12:21;;;;;;;302.40;160.10;;;;;;;;;;5059487;28;20041;-84
2022/12/31 16:15:16;;;;;;;294.75;159.93;;;;;;;;;;5054193;28;20041;-84
2022/12/31 16:18:09;;;;;;;276.40;152.75;;;;;;;;;;5058996;28;20048;-85
2022/12/31 16:20:55;;;;;;;253.98;142.25;;;;;;;;;;5058727;28;20490;-84
2022/12/31 16:23:49;;;;;;;229.98;130.07;;;;;;;;;;5074271;28;20041;-89
2022/12/31 16:26:47;;;;;;;217.48;124.50;;;;;;;;;;5052559;28;20045;-85
2022/12/31 16:29:40;;;;;;;213.90;118.53;;;;;;;;;;5073987;28;20029;-83
2022/12/31 16:32:32;;;;;;;177.90;95.45;;;;;;;;;;5056012;28;20048;-83
2022/12/31 16:35:23;;;;;;;140.85;70.80;;;;;;;;;;5058501;28;20048;-85
2022/12/31 16:38:13;;;;;;;99.60;54.75;;;;;;;;;;5074653;28;20041;-82
2022/12/31 16:41:05;;;;;;;97.75;52.28;;;;;;;;;;5054651;28;20491;-84
2022/12/31 16:44:24;;;;;;;107.10;57.05;;;;;;;;;;5057494;28;20037;-84
2022/12/31 16:47:15;;;;;;;169.52;93.45;;;;;;;;;;5054013;28;20032;-81
2022/12/31 16:50:26;;;;;;;171.20;93.75;;;;;;;;;;5054809;28;20037;-83
2022/12/31 16:53:16;;;;;;;196.75;106.85;;;;;;;;;;5053258;28;20053;-87
2022/12/31 16:56:07;;;;;;;179.10;90.10;;;;;;;;;;5055380;28;20052;-84
2022/12/31 16:59:00;;;;;;;271.95;138.90;;;;;;;;;;5054904;28;20044;-84
2022/12/31 17:01:46;;;;;;;291.85;144.75;;;;;;;;;;5056380;28;20044;-83
2022/12/31 17:04:34;;;;;;;300.98;159.82;;;;;;;;;;5073944;28;20402;-83
2022/12/31 17:07:29;;;;;;;336.98;183.32;;;;;;;;;;5071675;28;20395;-82
2022/12/31 17:10:35;;;;;;;358.83;204.77;;;;;;;;;;5057389;28;20049;-83
2022/12/31 17:13:31;;;;;;;;;;;;;;;;;;5057801;28;20052;-83
2022/12/31 17:16:17;;;;;;;362.60;204.73;;;;;;;;;;5058615;28;19913;-83
2022/12/31 17:19:03;;;;;;;382.65;209.40;;;;;;;;;;5077497;28;20040;-85
2022/12/31 17:21:49;;;;;;;419.35;237.90;;;;;;;;;;5055927;28;20036;-84
2022/12/31 17:24:35;;;;;;;377.13;205.13;;;;;;;;;;5058220;28;20422;-84
2022/12/31 17:27:20;;;;;;;391.42;217.57;;;;;;;;;;5056984;28;20044;-82
2022/12/31 17:30:21;;;;;;;377.08;214.05;;;;;;;;;;5076948;28;20033;-85
2022/12/31 17:33:07;;;;;;;345.35;175.80;;;;;;;;;;5057073;28;20041;-84
2022/12/31 17:36:13;;;;;;;341.40;187.68;;;;;;;;;;5056449;28;20048;-84
2022/12/31 17:39:16;;;;;;;372.83;206.02;;;;;;;;;;5062242;28;20033;-83
2022/12/31 17:42:02;;;;;;;373.85;205.82;;;;;;;;;;5056594;28;20274;-84
2022/12/31 17:44:47;;;;;;;378.88;211.13;;;;;;;;;;5056610;28;20045;-87
2022/12/31 17:47:37;;;;;;;392.75;224.65;;;;;;;;;;5057353;28;20044;-86
2022/12/31 17:50:25;;;;;;;386.92;212.90;;;;;;;;;;5057026;28;20045;-84
2022/12/31 17:53:16;;;;;;;344.80;187.68;;;;;;;;;;5056548;28;20048;-85
2022/12/31 17:56:03;;;;;;;519.30;277.15;;;;;;;;;;5056552;28;20367;-84
2022/12/31 17:58:52;;;;;;;510.75;270.52;;;;;;;;;;5056641;28;20029;-84
2022/12/31 18:01:36;;;;;;;420.30;219.88;;;;;;;;;;5057525;28;20045;-85
2022/12/31 18:04:21;;;;;;;386.40;198.20;;;;;;;;;;5057803;28;20053;-85
2022/12/31 18:07:07;;;;;;;254.63;129.43;;;;;;;;;;5057043;28;20045;-85
2022/12/31 18:09:52;;;;;;;263.45;136.13;;;;;;;;;;5057282;28;20045;-83
2022/12/31 18:12:38;;;;;;;595.97;425.20;;;;;;;;;;5069060;28;20383;-85
2022/12/31 18:15:23;;;;;;;741.42;468.05;;;;;;;;;;5055687;28;20048;-85
2022/12/31 18:18:23;;;;;;;534.88;311.48;;;;;;;;;;5067706;28;20049;-85
2022/12/31 18:21:17;;;;;;;269.98;139.32;;;;;;;;;;5055822;28;20045;-85
2022/12/31 18:24:03;;;;;;;239.40;118.10;;;;;;;;;;5061904;28;20375;-83
2022/12/31 18:26:49;;;;;;;223.30;111.93;;;;;;;;;;5055787;28;20045;-84
2022/12/31 18:29:35;;;;;;;217.32;109.53;;;;;;;;;;5047024;28;20045;-83
2022/12/31 18:32:26;;;;;;;239.10;118.50;;;;;;;;;;5055451;28;20486;-82
2022/12/31 18:35:15;;;;;;;249.43;125.10;;;;;;;;;;5061292;28;20490;-83
2022/12/31 18:38:00;;;;;;;288.30;146.13;;;;;;;;;;5055531;28;20032;-84
2022/12/31 18:41:06;;;;;;;257.77;133.38;;;;;;;;;;5075575;28;20033;-84
2022/12/31 18:43:52;;;;;;;294.63;152.13;;;;;;;;;;5075175;28;20391;-85
2022/12/31 18:46:37;;;;;;;360.98;194.98;;;;;;;;;;5053947;28;20490;-83
2022/12/31 18:49:23;;;;;;;391.88;219.70;;;;;;;;;;5055352;28;20482;-85
2022/12/31 18:52:13;;;;;;;364.20;212.68;;;;;;;;;;5055945;28;20039;-80
2022/12/31 18:54:58;;;;;;;405.70;229.48;;;;;;;;;;5057553;28;20498;-82
2022/12/31 18:57:43;;;;;;;418.27;240.23;;;;;;;;;;5057147;28;20037;-79